Time;durP1;ratioP1;P1;durP2;ratioP2;P2;SDS_P1;SDS_P2;PMS_P1;PMS_P2;Temp;Humidity;BMP_temperature;BMP_pressure;BME280_temperature;BME280_humidity;BME280_pressure;Samples;Min_cycle;Max_cycle;Signal;HPM_P1;HPM_P2
2023/10/17 00:01:32;;;;;;;10.25;4.72;;;5.80;99.90;;;;;;4998326;28;132448;-72
2023/10/17 00:04:11;;;;;;;9.82;4.53;;;5.80;99.90;;;;;;5058543;28;20052;-73
2023/10/17 00:06:37;;;;;;;14.00;5.03;;;5.80;99.90;;;;;;4996299;28;179162;-72
2023/10/17 00:09:07;;;;;;;14.48;4.78;;;5.70;99.90;;;;;;5055519;28;20521;-73
2023/10/17 00:14:18;;;;;;;15.18;4.35;;;5.70;99.90;;;;;;5059231;28;20048;-72
2023/10/17 00:16:44;;;;;;;13.45;4.38;;;5.70;99.90;;;;;;5014889;28;147322;-72
2023/10/17 00:19:11;;;;;;;9.55;4.10;;;5.70;99.90;;;;;;5047962;28;20415;-71
2023/10/17 00:21:39;;;;;;;12.25;4.38;;;5.70;99.90;;;;;;5019193;28;20466;-71
2023/10/17 00:24:09;;;;;;;13.00;4.82;;;5.70;99.90;;;;;;5063559;28;20526;-73
2023/10/17 00:26:37;;;;;;;11.88;4.60;;;5.70;99.90;;;;;;5006687;28;228219;-71
2023/10/17 00:29:05;;;;;;;13.88;4.40;;;5.70;99.90;;;;;;5065310;28;20064;-72
2023/10/17 00:31:37;;;;;;;9.35;3.95;;;5.60;99.90;;;;;;5026672;28;20045;-72
2023/10/17 00:34:13;;;;;;;12.25;4.28;;;5.60;99.90;;;;;;5068497;28;20053;-72
2023/10/17 00:36:47;;;;;;;15.95;5.28;;;5.60;99.90;;;;;;5001331;28;242826;-72
2023/10/17 00:39:29;;;;;;;12.90;4.80;;;5.50;99.90;;;;;;5062559;28;20541;-72
2023/10/17 00:44:36;;;;;;;13.55;4.80;;;5.40;99.90;;;;;;5031356;28;19948;-73
2023/10/17 00:47:18;;;;;;;10.75;4.15;;;5.40;99.90;;;;;;5041007;28;123206;-70
2023/10/17 00:49:45;;;;;;;19.25;5.38;;;5.40;99.90;;;;;;5033992;28;76671;-69
2023/10/17 00:52:23;;;;;;;12.02;4.30;;;5.40;99.90;;;;;;5047875;28;106673;-71
2023/10/17 00:54:53;;;;;;;10.73;4.30;;;5.30;99.90;;;;;;5021248;28;85967;-71
2023/10/17 00:57:26;;;;;;;9.27;3.40;;;5.30;99.90;;;;;;5048662;28;20074;-71
2023/10/17 00:59:56;;;;;;;10.18;4.13;;;5.30;99.90;;;;;;5017994;28;180203;-72
2023/10/17 01:02:25;;;;;;;10.30;3.77;;;5.40;99.90;;;;;;5076826;28;20048;-71
2023/10/17 01:04:52;;;;;;;10.60;4.00;;;5.40;99.90;;;;;;5015156;28;123815;-71
2023/10/17 01:07:27;;;;;;;10.52;3.92;;;5.40;99.90;;;;;;5060753;28;20057;-71
2023/10/17 01:10:00;;;;;;;11.40;4.25;;;5.40;99.90;;;;;;5021802;28;32481;-72
2023/10/17 01:12:27;;;;;;;13.73;4.57;;;5.40;99.90;;;;;;5067680;28;21011;-71
2023/10/17 01:14:57;;;;;;;10.82;4.07;;;5.40;99.90;;;;;;5018232;28;34048;-72
2023/10/17 01:17:27;;;;;;;9.48;4.13;;;5.40;99.90;;;;;;5029884;28;20059;-71
2023/10/17 01:19:59;;;;;;;12.43;4.05;;;5.40;99.90;;;;;;5011721;28;182730;-72
2023/10/17 01:22:25;;;;;;;10.85;4.60;;;5.50;99.90;;;;;;5046202;28;20055;-72
2023/10/17 01:24:51;;;;;;;10.85;4.55;;;5.50;99.90;;;;;;5015828;28;211842;-72
2023/10/17 01:27:17;;;;;;;10.45;5.05;;;5.50;99.90;;;;;;5064873;28;20067;-72
2023/10/17 01:29:44;;;;;;;11.98;5.57;;;5.50;99.90;;;;;;5029218;28;20079;-71
2023/10/17 01:32:10;;;;;;;14.82;5.93;;;5.60;99.90;;;;;;5022241;28;20053;-72
2023/10/17 01:34:37;;;;;;;9.85;4.88;;;5.60;99.90;;;;;;5029974;28;20061;-70
2023/10/17 01:37:07;;;;;;;13.05;5.15;;;5.60;99.90;;;;;;5032195;28;20053;-71
2023/10/17 01:39:34;;;;;;;15.68;6.88;;;5.60;99.90;;;;;;5024300;28;20051;-72
2023/10/17 01:42:00;;;;;;;12.90;6.32;;;5.70;99.90;;;;;;5048401;28;20040;-71
2023/10/17 01:44:26;;;;;;;14.63;6.85;;;5.70;99.90;;;;;;5032156;28;20040;-71
2023/10/17 01:46:52;;;;;;;14.55;6.32;;;5.60;99.90;;;;;;5038860;28;59085;-72
2023/10/17 01:49:19;;;;;;;10.80;5.57;;;5.60;99.90;;;;;;5045823;28;20056;-72
2023/10/17 01:51:48;;;;;;;13.43;5.63;;;5.60;99.90;;;;;;4963987;28;262247;-70
2023/10/17 01:54:17;;;;;;;13.65;5.60;;;5.50;99.90;;;;;;5062454;28;20060;-73
2023/10/17 01:56:50;;;;;;;10.10;5.15;;;5.50;99.90;;;;;;5012717;28;204265;-71
2023/10/17 01:59:28;;;;;;;18.23;6.78;;;5.40;99.90;;;;;;5074790;28;20536;-70
2023/10/17 02:01:56;;;;;;;15.60;7.07;;;5.40;99.90;;;;;;4994771;28;115341;-69
2023/10/17 02:04:24;;;;;;;14.25;6.72;;;5.30;99.90;;;;;;5049652;28;20049;-70
2023/10/17 02:06:51;;;;;;;15.20;7.45;;;5.20;99.90;;;;;;5007085;28;193471;-70
2023/10/17 02:11:55;;;;;;;15.90;7.43;;;5.10;99.90;;;;;;4978910;28;228818;-69
2023/10/17 02:14:22;;;;;;;15.52;7.65;;;5.10;99.90;;;;;;5054330;28;20189;-69
2023/10/17 02:16:49;;;;;;;16.33;7.90;;;5.00;99.90;;;;;;5011223;28;45455;-70
2023/10/17 02:19:19;;;;;;;13.63;7.68;;;5.00;99.90;;;;;;5053426;28;20075;-69
2023/10/17 02:21:49;;;;;;;21.42;6.70;;;4.90;99.90;;;;;;4998634;28;159793;-69
2023/10/17 02:24:19;;;;;;;15.10;7.93;;;4.90;99.90;;;;;;5056106;28;20132;-69
2023/10/17 02:26:55;;;;;;;15.48;7.82;;;4.80;99.90;;;;;;5009473;28;35537;-70
2023/10/17 02:29:26;;;;;;;15.85;7.80;;;4.80;99.90;;;;;;5045447;28;20053;-70
2023/10/17 02:31:54;;;;;;;16.23;7.45;;;4.70;99.90;;;;;;5002118;28;105898;-69
2023/10/17 02:34:29;;;;;;;14.40;7.30;;;4.70;99.90;;;;;;5059755;28;20063;-68
2023/10/17 02:36:56;;;;;;;14.10;7.13;;;4.60;99.90;;;;;;5000936;28;60063;-70
2023/10/17 02:39:22;;;;;;;13.77;7.63;;;4.70;99.90;;;;;;5049013;28;20056;-70
2023/10/17 02:41:57;;;;;;;15.90;7.65;;;4.60;99.90;;;;;;5008699;28;111668;-70
2023/10/17 02:44:24;;;;;;;15.63;7.68;;;4.60;99.90;;;;;;5043776;28;20453;-70
2023/10/17 02:46:51;;;;;;;15.50;8.23;;;4.60;99.90;;;;;;5020896;28;20052;-70
2023/10/17 02:49:17;;;;;;;15.63;8.95;;;4.50;99.90;;;;;;5060827;28;20060;-70
2023/10/17 02:51:43;;;;;;;17.13;8.65;;;4.50;99.90;;;;;;4984060;28;153624;-70
2023/10/17 02:54:12;;;;;;;14.93;9.15;;;4.50;99.90;;;;;;5057151;28;20060;-69
2023/10/17 02:56:46;;;;;;;19.35;10.02;;;4.50;99.90;;;;;;5000767;28;28834;-71
2023/10/17 02:59:13;;;;;;;17.00;9.50;;;4.40;99.90;;;;;;5061224;28;20036;-70
2023/10/17 03:01:42;;;;;;;18.70;10.77;;;4.40;99.90;;;;;;5010205;28;206455;-70
2023/10/17 03:04:17;;;;;;;21.50;10.68;;;4.40;99.90;;;;;;5065069;28;20075;-70
2023/10/17 03:06:44;;;;;;;19.17;10.07;;;4.40;99.90;;;;;;5000660;28;192390;-70
2023/10/17 03:12:06;;;;;;;17.25;9.75;;;4.30;99.90;;;;;;4993833;28;243825;-70
2023/10/17 03:17:11;;;;;;;17.42;10.57;;;4.20;99.90;;;;;;5034586;28;20458;-70
2023/10/17 03:19:38;;;;;;;15.10;9.55;;;4.20;99.90;;;;;;5031947;28;20055;-70
2023/10/17 03:22:26;;;;;;;17.00;9.93;;;4.20;99.90;;;;;;5043328;28;34242;-70
2023/10/17 03:25:09;;;;;;;14.98;8.50;;;4.20;99.90;;;;;;5022718;28;170060;-70
2023/10/17 03:27:37;;;;;;;17.98;9.82;;;4.10;99.90;;;;;;5049791;28;20052;-70
2023/10/17 03:30:11;;;;;;;23.98;9.77;;;4.10;99.90;;;;;;5012639;28;55575;-70
2023/10/17 03:32:58;;;;;;;17.35;10.43;;;4.10;99.90;;;;;;5039633;28;20057;-70
2023/10/17 03:35:24;;;;;;;19.05;10.38;;;4.00;99.90;;;;;;5006816;28;24311;-70
2023/10/17 03:37:51;;;;;;;20.40;10.45;;;4.00;99.90;;;;;;5053217;28;20045;-69
2023/10/17 03:42:55;;;;;;;18.63;9.23;;;3.90;99.90;;;;;;5061590;28;20049;-70
2023/10/17 03:47:53;;;;;;;17.25;9.60;;;3.90;99.90;;;;;;5045728;28;20052;-70
2023/10/17 03:53:24;;;;;;;19.48;10.10;;;3.80;99.90;;;;;;5019788;28;20041;-70
2023/10/17 03:55:51;;;;;;;17.52;9.77;;;3.80;99.90;;;;;;4977582;28;187614;-71
2023/10/17 04:00:52;;;;;;;18.73;9.55;;;3.80;99.90;;;;;;4979601;28;130661;-71
2023/10/17 04:03:21;;;;;;;16.13;9.90;;;3.80;99.90;;;;;;5021695;28;20428;-70
2023/10/17 04:06:00;;;;;;;16.02;9.57;;;3.80;99.90;;;;;;4981963;28;133257;-70
2023/10/17 04:08:31;;;;;;;18.10;10.15;;;3.80;99.90;;;;;;4987091;28;20076;-70
2023/10/17 04:13:43;;;;;;;18.20;8.73;;;3.70;99.90;;;;;;5007321;28;20895;-69
2023/10/17 04:16:17;;;;;;;13.52;8.05;;;3.70;99.90;;;;;;4962668;28;140799;-69
2023/10/17 04:18:48;;;;;;;19.10;9.15;;;3.70;99.90;;;;;;5006303;28;20536;-71
2023/10/17 04:21:37;;;;;;;16.70;9.20;;;3.80;99.90;;;;;;4955843;28;212352;-70
2023/10/17 04:24:06;;;;;;;18.15;8.43;;;3.80;99.90;;;;;;5023688;28;20057;-70
2023/10/17 04:26:35;;;;;;;19.67;9.10;;;3.70;99.90;;;;;;4978709;28;74997;-71
2023/10/17 04:29:21;;;;;;;19.63;9.95;;;3.70;99.90;;;;;;5024106;28;20539;-69
2023/10/17 04:31:47;;;;;;;15.65;8.43;;;3.80;99.90;;;;;;4998735;28;59139;-70
2023/10/17 04:34:26;;;;;;;16.00;8.80;;;3.80;99.90;;;;;;5063156;28;20587;-71
2023/10/17 04:36:56;;;;;;;16.45;7.95;;;3.80;99.90;;;;;;4985448;28;113406;-69
2023/10/17 04:44:25;;;;;;;16.30;8.57;;;3.80;99.90;;;;;;5057152;28;20052;-71
2023/10/17 04:49:36;;;;;;;15.25;7.72;;;3.70;99.90;;;;;;5032276;28;20040;-69
2023/10/17 04:52:10;;;;;;;15.45;6.75;;;3.70;99.90;;;;;;5020873;28;149437;-70
2023/10/17 04:57:04;;;;;;;15.45;7.32;;;3.70;99.90;;;;;;5028533;28;101976;-71
2023/10/17 06:18:59;;;;;;;12.55;5.53;;;5.50;99.90;;;;;;5059726;28;20056;-71
2023/10/17 06:21:35;;;;;;;11.45;5.70;;;5.60;99.90;;;;;;4999283;28;145742;-72
2023/10/17 06:34:20;;;;;;;12.82;5.25;;;5.70;99.90;;;;;;5061222;28;20044;-71
2023/10/17 06:36:55;;;;;;;14.73;5.63;;;5.70;99.90;;;;;;4992770;28;175280;-71
2023/10/17 06:39:24;;;;;;;11.20;5.60;;;5.80;99.90;;;;;;5052752;28;20072;-71
2023/10/17 06:41:59;;;;;;;11.00;5.13;;;5.80;99.90;;;;;;5004368;28;163215;-73
2023/10/17 06:44:26;;;;;;;14.48;7.10;;;5.80;99.90;;;;;;5041668;28;20057;-71
2023/10/17 06:46:56;;;;;;;12.98;5.78;;;5.80;99.90;;;;;;5006228;28;94068;-72
2023/10/17 06:54:41;;;;;;;14.63;6.78;;;6.10;99.90;;;;;;5025135;28;20049;-71
2023/10/17 06:57:19;;;;;;;14.05;6.25;;;6.10;99.90;;;;;;5029058;28;86639;-69
2023/10/17 06:59:50;;;;;;;13.60;6.13;;;6.20;99.90;;;;;;5021396;28;74667;-71
2023/10/17 07:02:30;;;;;;;12.90;5.65;;;6.30;99.90;;;;;;5031069;28;21304;-70
2023/10/17 07:05:01;;;;;;;16.05;6.20;;;6.30;99.90;;;;;;5009029;28;224078;-70
2023/10/17 07:07:40;;;;;;;13.25;5.72;;;6.40;99.90;;;;;;5059659;28;20057;-71
2023/10/17 07:10:16;;;;;;;12.20;5.45;;;6.50;99.90;;;;;;5014295;28;85281;-70
2023/10/17 07:12:50;;;;;;;14.07;6.03;;;6.60;99.90;;;;;;5056024;28;20059;-70
2023/10/17 07:15:19;;;;;;;16.35;6.07;;;6.60;99.90;;;;;;5007754;28;96240;-70
2023/10/17 07:17:54;;;;;;;15.00;6.25;;;6.70;99.90;;;;;;5030085;28;20064;-70
2023/10/17 07:21:09;;;;;;;11.73;5.93;;;6.80;99.90;;;;;;5006213;28;66758;-71
2023/10/17 07:23:14;;;;;;;16.73;6.93;;;6.90;99.90;;;;;;5054989;28;20045;-70
2023/10/17 07:25:40;;;;;;;17.20;7.10;;;7.00;99.90;;;;;;5012938;28;248731;-70
2023/10/17 07:28:10;;;;;;;13.20;6.80;;;7.10;99.90;;;;;;5060488;28;20036;-70
2023/10/17 07:30:49;;;;;;;15.80;7.18;;;7.20;99.90;;;;;;5012463;28;155050;-70
2023/10/17 07:33:18;;;;;;;11.68;6.22;;;7.30;99.90;;;;;;5059870;28;20051;-71
2023/10/17 07:35:44;;;;;;;16.55;7.40;;;7.40;99.90;;;;;;5009296;28;111770;-70
2023/10/17 07:38:14;;;;;;;14.32;7.13;;;7.50;99.90;;;;;;5056354;28;20056;-69
2023/10/17 07:43:09;;;;;;;15.98;5.88;;;7.70;99.90;;;;;;5059851;28;20040;-69
2023/10/17 07:45:39;;;;;;;14.15;7.32;;;7.80;99.90;;;;;;5005264;28;219155;-70
2023/10/17 07:50:54;;;;;;;15.02;7.25;;;8.10;99.90;;;;;;5010379;28;123981;-71
2023/10/17 07:53:20;;;;;;;13.93;6.90;;;8.20;99.90;;;;;;5058462;28;20059;-70
2023/10/17 07:55:52;;;;;;;14.52;6.75;;;8.30;99.90;;;;;;5015408;28;190726;-70
2023/10/17 08:01:07;;;;;;;16.05;6.45;;;8.60;99.90;;;;;;5010649;28;121873;-70
2023/10/17 08:03:40;;;;;;;13.70;6.50;;;8.80;99.90;;;;;;5059333;28;20060;-70
2023/10/17 08:06:12;;;;;;;15.43;7.03;;;8.90;99.90;;;;;;4972648;28;234436;-70
2023/10/17 08:08:44;;;;;;;15.85;6.40;;;9.00;99.90;;;;;;5059375;28;20056;-69
2023/10/17 08:11:26;;;;;;;15.90;6.53;;;9.10;99.90;;;;;;5015060;28;276184;-71
2023/10/17 08:13:55;;;;;;;16.10;6.57;;;9.20;99.90;;;;;;5058057;28;20060;-71
2023/10/17 08:16:24;;;;;;;13.60;6.20;;;9.30;99.90;;;;;;4986190;28;237166;-70
2023/10/17 08:21:41;;;;;;;13.48;5.57;;;9.40;99.90;;;;;;5014526;28;253594;-70
2023/10/17 08:24:07;;;;;;;12.93;5.07;;;9.40;99.90;;;;;;5059897;28;20531;-71
2023/10/17 08:26:40;;;;;;;11.98;5.40;;;9.40;99.90;;;;;;5018580;28;155245;-71
2023/10/17 08:29:10;;;;;;;15.65;5.60;;;9.30;99.90;;;;;;5056327;28;20127;-70
2023/10/17 08:31:36;;;;;;;12.15;4.97;;;9.20;99.90;;;;;;5019313;28;241668;-70
2023/10/17 08:36:47;;;;;;;16.00;5.07;;;9.20;99.90;;;;;;5020536;28;20067;-70
2023/10/17 08:42:05;;;;;;;11.27;4.20;;;9.00;99.90;;;;;;5008472;28;64249;-70
2023/10/17 08:44:35;;;;;;;14.02;4.30;;;9.00;99.90;;;;;;5028545;28;20056;-69
2023/10/17 08:47:01;;;;;;;11.73;3.92;;;9.00;99.90;;;;;;5026743;28;164250;-70
2023/10/17 08:49:28;;;;;;;9.77;3.38;;;9.00;99.90;;;;;;5032681;28;20067;-70
2023/10/17 08:51:56;;;;;;;14.65;3.60;;;9.00;99.90;;;;;;5032136;28;135547;-69
2023/10/17 08:54:24;;;;;;;14.75;3.75;;;9.00;99.90;;;;;;5053113;28;20081;-69
2023/10/17 08:56:51;;;;;;;15.50;3.78;;;8.90;99.90;;;;;;5020166;28;199427;-70
2023/10/17 09:02:15;;;;;;;13.20;3.47;;;8.90;99.90;;;;;;5004932;28;20045;-69
2023/10/17 09:04:44;;;;;;;12.27;2.65;;;9.00;99.90;;;;;;5024943;28;20393;-71
2023/10/17 09:07:22;;;;;;;9.38;2.80;;;9.00;99.90;;;;;;5056377;28;20064;-70
2023/10/17 09:09:54;;;;;;;9.10;2.67;;;9.00;99.90;;;;;;5012690;28;20045;-70
2023/10/17 09:12:24;;;;;;;9.93;3.10;;;9.00;99.90;;;;;;5031861;28;20503;-71
2023/10/17 09:14:52;;;;;;;10.48;2.70;;;9.00;99.90;;;;;;5017277;28;20051;-70
2023/10/17 09:17:28;;;;;;;9.50;2.90;;;9.10;99.90;;;;;;5016469;28;20052;-70
2023/10/17 09:19:56;;;;;;;14.68;3.00;;;9.10;99.90;;;;;;5015363;28;20056;-70
2023/10/17 09:22:23;;;;;;;9.48;3.10;;;9.10;99.90;;;;;;5055490;28;20582;-70
2023/10/17 09:24:50;;;;;;;12.82;3.10;;;9.10;99.90;;;;;;5022175;28;21988;-70
2023/10/17 09:27:18;;;;;;;9.48;2.90;;;9.20;99.90;;;;;;5032123;28;20063;-69
2023/10/17 09:29:59;;;;;;;15.63;3.20;;;9.20;99.90;;;;;;5011223;28;20045;-71
2023/10/17 09:32:35;;;;;;;11.07;2.65;;;9.20;99.90;;;;;;5036087;28;20045;-71
2023/10/17 09:35:15;;;;;;;8.70;2.33;;;9.20;99.90;;;;;;5014003;28;20053;-69
2023/10/17 09:37:52;;;;;;;9.30;2.30;;;9.20;99.90;;;;;;5049172;28;20041;-70
2023/10/17 09:40:29;;;;;;;7.78;1.92;;;9.30;99.90;;;;;;5020308;28;20048;-70
2023/10/17 09:42:56;;;;;;;8.98;2.30;;;9.30;99.90;;;;;;5059980;28;20495;-69
2023/10/17 09:45:22;;;;;;;10.63;2.03;;;9.30;99.90;;;;;;5017475;28;20403;-69
2023/10/17 09:47:54;;;;;;;11.45;2.40;;;9.30;99.90;;;;;;5059409;28;20059;-69
2023/10/17 09:50:24;;;;;;;12.25;2.13;;;9.40;99.90;;;;;;5003564;28;138641;-70
2023/10/17 09:52:54;;;;;;;8.00;2.20;;;9.40;99.90;;;;;;5056093;28;20430;-70
2023/10/17 09:55:24;;;;;;;9.55;2.38;;;9.50;99.90;;;;;;5015379;28;20052;-70
2023/10/17 09:58:08;;;;;;;13.55;2.58;;;9.50;99.90;;;;;;5050317;28;20521;-68
2023/10/17 10:00:49;;;;;;;12.65;2.22;;;9.60;99.90;;;;;;5010763;28;20060;-70
2023/10/17 10:03:17;;;;;;;8.32;1.98;;;9.70;99.90;;;;;;5058038;28;20052;-68
2023/10/17 10:05:43;;;;;;;8.68;1.95;;;9.70;99.90;;;;;;5023096;28;20047;-70
2023/10/17 10:08:32;;;;;;;6.38;1.40;;;9.70;99.90;;;;;;5059429;28;20044;-69
2023/10/17 10:11:00;;;;;;;12.85;1.95;;;9.80;99.90;;;;;;5017455;28;20048;-70
2023/10/17 10:13:26;;;;;;;9.35;1.50;;;9.80;99.90;;;;;;5058352;28;20048;-69
2023/10/17 10:16:04;;;;;;;8.90;1.60;;;9.90;99.90;;;;;;5015937;28;20050;-69
2023/10/17 10:18:33;;;;;;;7.68;1.40;;;10.00;99.90;;;;;;5059285;28;20044;-70
2023/10/17 10:20:59;;;;;;;7.97;1.75;;;10.10;99.90;;;;;;5012525;28;20045;-69
2023/10/17 10:23:42;;;;;;;7.78;1.75;;;10.10;99.90;;;;;;5056372;28;20048;-69
2023/10/17 10:26:11;;;;;;;6.20;1.30;;;10.10;99.90;;;;;;4979669;28;20041;-70
2023/10/17 10:28:41;;;;;;;9.65;1.60;;;10.20;99.90;;;;;;5054800;28;20049;-69
2023/10/17 10:31:22;;;;;;;7.55;1.50;;;10.20;99.90;;;;;;5016815;28;20053;-70
2023/10/17 10:33:49;;;;;;;7.93;1.55;;;10.20;99.90;;;;;;5060337;28;20052;-70
2023/10/17 10:36:35;;;;;;;7.95;1.50;;;10.30;99.90;;;;;;5005831;28;20811;-70
2023/10/17 10:39:18;;;;;;;9.88;1.60;;;10.30;99.90;;;;;;5056188;28;20049;-70
2023/10/17 10:42:07;;;;;;;10.63;1.58;;;10.30;99.90;;;;;;5019762;28;20053;-70
2023/10/17 10:44:42;;;;;;;6.55;1.30;;;10.40;99.90;;;;;;5020480;28;20052;-70
2023/10/17 10:47:09;;;;;;;12.77;1.73;;;10.40;99.90;;;;;;5043189;28;20044;-70
2023/10/17 10:49:35;;;;;;;12.27;1.58;;;10.50;99.90;;;;;;5001451;28;72856;-70
2023/10/17 10:52:02;;;;;;;12.90;1.50;;;10.50;99.90;;;;;;5026690;28;20057;-70
2023/10/17 10:54:49;;;;;;;9.68;1.48;;;10.50;99.90;;;;;;5013413;28;20086;-70
2023/10/17 10:57:17;;;;;;;15.23;1.80;;;10.50;99.90;;;;;;5046645;28;20060;-70
2023/10/17 10:59:49;;;;;;;19.20;2.10;;;10.60;99.90;;;;;;5014900;28;20048;-70
2023/10/17 11:02:15;;;;;;;8.68;1.25;;;10.70;99.90;;;;;;5042849;28;20052;-70
2023/10/17 11:04:42;;;;;;;10.07;1.65;;;10.70;99.90;;;;;;5014996;28;20472;-69
2023/10/17 11:07:21;;;;;;;5.93;1.10;;;10.70;99.90;;;;;;5040180;28;20055;-70
2023/10/17 11:10:06;;;;;;;8.48;1.23;;;10.70;99.90;;;;;;5016671;28;20079;-70
2023/10/17 11:12:35;;;;;;;6.25;1.00;;;10.80;99.90;;;;;;5043628;28;20048;-70
2023/10/17 11:15:11;;;;;;;7.53;1.30;;;10.80;99.90;;;;;;5009354;28;20432;-70
2023/10/17 11:17:38;;;;;;;6.53;1.25;;;10.80;99.90;;;;;;5046289;28;20060;-70
2023/10/17 11:20:17;;;;;;;7.28;1.10;;;10.80;99.90;;;;;;5019603;28;20056;-70
2023/10/17 11:22:45;;;;;;;7.35;1.20;;;10.80;99.90;;;;;;5064462;28;20060;-70
2023/10/17 11:25:26;;;;;;;8.90;1.33;;;10.80;99.90;;;;;;5024002;28;20053;-69
2023/10/17 11:28:00;;;;;;;8.77;1.40;;;10.90;99.90;;;;;;5065855;28;20422;-70
2023/10/17 11:30:35;;;;;;;7.15;1.30;;;11.00;99.90;;;;;;5013764;28;274815;-70
2023/10/17 11:33:06;;;;;;;5.47;1.30;;;11.00;99.90;;;;;;5052594;28;20059;-70
2023/10/17 11:35:34;;;;;;;7.15;1.40;;;11.00;99.90;;;;;;5009170;28;191453;-69
2023/10/17 11:38:02;;;;;;;6.78;1.38;;;11.30;99.90;;;;;;5037218;28;20438;-70
2023/10/17 11:40:38;;;;;;;8.20;1.30;;;12.60;99.90;;;;;;5023867;28;20064;-70
2023/10/17 11:43:14;;;;;;;7.47;1.20;;;14.00;99.90;;;;;;5056797;28;20048;-70
2023/10/17 11:45:41;;;;;;;8.57;1.15;;;15.30;99.90;;;;;;4991271;28;20061;-71
2023/10/17 11:48:28;;;;;;;8.18;1.20;;;16.30;99.90;;;;;;5055129;28;20103;-70
2023/10/17 11:51:07;;;;;;;7.50;1.33;;;17.30;99.90;;;;;;5005688;28;68755;-70
2023/10/17 11:53:34;;;;;;;6.88;1.30;;;18.00;99.90;;;;;;5056244;28;20053;-70
2023/10/17 11:56:01;;;;;;;6.28;1.10;;;18.80;99.90;;;;;;5022043;28;20431;-71
2023/10/17 11:58:32;;;;;;;5.68;0.90;;;19.30;99.90;;;;;;5059140;28;20392;-71
2023/10/17 12:00:59;;;;;;;;;;;19.90;99.90;;;;;;5013857;28;20059;-71
2023/10/17 12:03:27;;;;;;;7.75;1.00;;;20.50;97.20;;;;;;5056062;28;19917;-71
2023/10/17 12:05:56;;;;;;;7.15;1.23;;;21.00;99.90;;;;;;5015167;28;20061;-71
2023/10/17 12:08:22;;;;;;;6.65;1.00;;;21.40;99.50;;;;;;5053417;28;20048;-71
2023/10/17 12:10:50;;;;;;;5.53;0.90;;;21.80;99.50;;;;;;5005105;28;20431;-70
2023/10/17 12:13:17;;;;;;;7.70;1.20;;;21.90;97.90;;;;;;5052953;28;20059;-71
2023/10/17 12:15:45;;;;;;;6.10;1.00;;;22.10;96.60;;;;;;5020430;28;20048;-71
2023/10/17 12:18:15;;;;;;;6.45;1.17;;;22.10;96.00;;;;;;5051288;28;20056;-71
2023/10/17 12:20:41;;;;;;;7.55;1.10;;;21.90;94.70;;;;;;5014514;28;20059;-71
2023/10/17 12:23:11;;;;;;;5.63;1.00;;;21.60;95.00;;;;;;5052668;28;20515;-71
2023/10/17 12:25:42;;;;;;;12.93;1.30;;;21.80;94.60;;;;;;5014712;28;20060;-70
2023/10/17 12:28:08;;;;;;;;;;;21.80;93.90;;;;;;5057764;28;20139;-71
2023/10/17 12:30:39;;;;;;;6.90;1.30;;;21.70;90.60;;;;;;5015628;28;19924;-70
2023/10/17 12:33:05;;;;;;;8.27;1.20;;;21.60;93.10;;;;;;5062104;28;20052;-71
2023/10/17 12:35:33;;;;;;;6.78;1.42;;;21.80;92.70;;;;;;5020979;28;20419;-70
2023/10/17 12:38:06;;;;;;;8.10;1.40;;;21.90;92.30;;;;;;5056649;28;20053;-71
2023/10/17 12:40:32;;;;;;;9.60;4.03;;;22.00;92.70;;;;;;5013514;28;20639;-71
2023/10/17 12:42:58;;;;;;;9.75;1.90;;;22.40;92.30;;;;;;5054740;28;20055;-71
2023/10/17 12:45:24;;;;;;;5.78;1.23;;;22.90;91.50;;;;;;5014377;28;20041;-71
2023/10/17 12:47:51;;;;;;;5.90;1.23;;;23.20;91.10;;;;;;5044253;28;20052;-71
2023/10/17 12:50:20;;;;;;;5.72;1.30;;;23.00;89.40;;;;;;5001459;28;230302;-70
2023/10/17 12:52:47;;;;;;;6.47;1.30;;;22.30;90.60;;;;;;5050586;28;20049;-71
2023/10/17 12:55:13;;;;;;;6.97;1.42;;;22.50;91.40;;;;;;5021370;28;20656;-70
2023/10/17 12:57:39;;;;;;;6.35;1.48;;;23.00;90.40;;;;;;5060783;28;20053;-71
2023/10/17 13:00:09;;;;;;;7.35;1.38;;;23.20;90.90;;;;;;5016245;28;20075;-70
2023/10/17 13:02:39;;;;;;;7.13;1.50;;;23.30;89.70;;;;;;5052672;28;20036;-71
2023/10/17 13:05:09;;;;;;;9.48;1.65;;;23.70;90.00;;;;;;5022044;28;20049;-71
2023/10/17 13:07:39;;;;;;;6.68;1.33;;;23.80;89.10;;;;;;5044210;28;21012;-70
2023/10/17 13:10:07;;;;;;;7.70;1.58;;;23.60;86.60;;;;;;5019436;28;20040;-70
2023/10/17 13:12:33;;;;;;;7.03;1.40;;;23.70;88.70;;;;;;5060987;28;20395;-70
2023/10/17 13:15:01;;;;;;;6.85;1.30;;;23.50;88.80;;;;;;5014070;28;20474;-70
2023/10/17 13:17:28;;;;;;;5.72;1.10;;;23.80;85.70;;;;;;5047382;28;20045;-72
2023/10/17 13:19:55;;;;;;;7.85;1.50;;;24.00;86.40;;;;;;5014738;28;20064;-72
2023/10/17 13:22:22;;;;;;;7.80;1.58;;;24.10;88.30;;;;;;5048086;28;20072;-71
2023/10/17 13:24:50;;;;;;;6.07;1.30;;;23.80;86.80;;;;;;5018871;28;20466;-71
2023/10/17 13:27:16;;;;;;;7.70;1.40;;;23.90;86.10;;;;;;5038815;28;20045;-72
2023/10/17 13:29:43;;;;;;;7.75;1.30;;;24.30;85.00;;;;;;5021203;28;20522;-71
2023/10/17 13:32:09;;;;;;;7.47;1.20;;;24.70;85.30;;;;;;5055893;28;20057;-75
2023/10/17 13:34:36;;;;;;;6.40;1.40;;;24.90;84.80;;;;;;5020970;28;20063;-71
2023/10/17 13:37:07;;;;;;;7.43;1.45;;;24.70;84.80;;;;;;5044139;28;20049;-72
2023/10/17 13:39:33;;;;;;;9.75;1.80;;;24.50;83.30;;;;;;5013665;28;20052;-71
2023/10/17 13:42:03;;;;;;;6.40;1.48;;;24.40;82.20;;;;;;5035334;28;20053;-71
2023/10/17 13:44:30;;;;;;;6.97;1.30;;;23.80;83.40;;;;;;5021598;28;20040;-73
2023/10/17 13:46:56;;;;;;;6.65;1.30;;;24.00;84.20;;;;;;5040673;28;20640;-71
2023/10/17 13:49:23;;;;;;;8.82;1.52;;;23.70;82.00;;;;;;5049594;28;20052;-72
2023/10/17 13:51:49;;;;;;;8.73;1.30;;;23.90;83.70;;;;;;4994217;28;52074;-71
2023/10/17 13:54:16;;;;;;;7.03;1.15;;;24.00;82.70;;;;;;5059143;28;20064;-71
2023/10/17 13:56:43;;;;;;;10.15;3.55;;;24.00;83.00;;;;;;5018112;28;20052;-71
2023/10/17 13:59:13;;;;;;;7.22;1.70;;;24.30;82.10;;;;;;5058852;28;20049;-71
2023/10/17 14:01:43;;;;;;;6.78;1.30;;;24.10;81.10;;;;;;5001233;28;20045;-72
2023/10/17 14:04:10;;;;;;;6.82;1.33;;;24.60;80.50;;;;;;5070020;28;20053;-72
2023/10/17 14:06:42;;;;;;;10.75;1.50;;;24.40;81.00;;;;;;5001782;28;20052;-72
2023/10/17 14:09:14;;;;;;;7.72;1.42;;;24.80;81.70;;;;;;5062557;28;20463;-73
2023/10/17 14:11:42;;;;;;;8.50;1.58;;;24.30;80.30;;;;;;5004372;28;20431;-71
2023/10/17 14:14:10;;;;;;;6.47;1.25;;;23.60;80.80;;;;;;5059375;28;21507;-71
2023/10/17 14:16:41;;;;;;;6.68;1.20;;;23.70;80.10;;;;;;5005506;28;20049;-72
2023/10/17 14:22:10;;;;;;;7.55;1.50;;;23.50;80.60;;;;;;4994372;28;20033;-71
2023/10/17 14:27:29;;;;;;;5.15;1.10;;;23.90;80.80;;;;;;5056348;28;20048;-72
2023/10/17 14:29:59;;;;;;;6.97;1.20;;;24.30;80.70;;;;;;5016083;28;20047;-72
2023/10/17 14:32:27;;;;;;;7.25;1.23;;;24.10;80.60;;;;;;5053879;28;20092;-70
2023/10/17 14:34:54;;;;;;;8.30;1.42;;;23.50;79.10;;;;;;5018249;28;20053;-71
2023/10/17 14:37:22;;;;;;;8.95;1.73;;;23.10;80.90;;;;;;5052614;28;20040;-71
2023/10/17 14:39:48;;;;;;;9.73;1.20;;;23.40;80.40;;;;;;5018042;28;20058;-70
2023/10/17 14:42:14;;;;;;;5.32;1.00;;;23.10;80.00;;;;;;5038653;28;20052;-71
2023/10/17 14:44:46;;;;;;;6.63;1.30;;;23.30;78.20;;;;;;5016159;28;20690;-72
2023/10/17 14:47:19;;;;;;;7.35;1.30;;;23.20;79.60;;;;;;5042867;28;20411;-71
2023/10/17 14:49:47;;;;;;;8.05;1.50;;;23.10;78.80;;;;;;5000168;28;171648;-72
2023/10/17 14:52:14;;;;;;;7.40;1.60;;;22.60;79.80;;;;;;5029678;28;20048;-71
2023/10/17 14:54:41;;;;;;;7.00;1.17;;;20.60;80.90;;;;;;5012440;28;20057;-71
2023/10/17 14:57:09;;;;;;;6.60;1.30;;;18.80;83.20;;;;;;5017911;28;20057;-72
2023/10/17 14:59:38;;;;;;;7.65;1.15;;;17.80;84.90;;;;;;5011632;28;20057;-72
2023/10/17 15:02:05;;;;;;;5.95;1.00;;;17.20;86.30;;;;;;5038929;28;20049;-72
2023/10/17 15:04:32;;;;;;;6.07;1.20;;;16.40;87.10;;;;;;5019928;28;20403;-71
2023/10/17 15:06:58;;;;;;;5.15;1.10;;;15.90;87.90;;;;;;5053363;28;20055;-71
2023/10/17 15:09:27;;;;;;;7.55;1.30;;;15.50;88.60;;;;;;5049451;28;20068;-71
2023/10/17 15:11:53;;;;;;;8.75;1.58;;;15.00;89.60;;;;;;4995796;28;20057;-71
2023/10/17 15:14:22;;;;;;;7.40;1.10;;;14.50;90.00;;;;;;5054753;28;20515;-71
2023/10/17 15:16:48;;;;;;;5.60;0.88;;;14.30;90.50;;;;;;4988810;28;20053;-71
2023/10/17 15:19:15;;;;;;;5.63;1.00;;;14.10;90.80;;;;;;5054212;28;20056;-71
2023/10/17 15:21:41;;;;;;;6.18;1.00;;;13.80;91.00;;;;;;5004164;28;20053;-71
2023/10/17 15:24:10;;;;;;;4.75;1.00;;;13.60;91.20;;;;;;5057528;28;20051;-72
2023/10/17 15:26:37;;;;;;;4.40;1.10;;;13.40;91.40;;;;;;5018259;28;20107;-71
2023/10/17 15:29:03;;;;;;;9.15;1.42;;;13.10;91.70;;;;;;5059785;28;20526;-70
2023/10/17 15:31:29;;;;;;;8.52;1.10;;;12.90;92.00;;;;;;4997987;28;20041;-70
2023/10/17 15:33:55;;;;;;;4.78;1.15;;;12.80;92.20;;;;;;5060097;28;20491;-71
2023/10/17 15:36:25;;;;;;;9.13;1.27;;;12.70;92.50;;;;;;5012519;28;20051;-71
2023/10/17 15:38:51;;;;;;;9.48;1.50;;;12.70;92.80;;;;;;5067032;28;20052;-71